createdAt,value
2022-08-17T00:00:38.036Z,99.90
2022-08-17T00:03:07.869Z,99.90
2022-08-17T00:05:12.284Z,99.90
2022-08-17T00:07:16.581Z,99.90
2022-08-17T00:09:25.552Z,99.90
2022-08-17T00:11:35.430Z,99.90
2022-08-17T00:13:42.851Z,99.90
2022-08-17T00:15:51.589Z,99.90
2022-08-17T00:17:56.193Z,99.90
2022-08-17T00:20:01.571Z,99.90
2022-08-17T00:22:34.842Z,99.90
2022-08-17T00:24:35.455Z,99.90
2022-08-17T00:26:45.174Z,99.90
2022-08-17T00:28:54.445Z,99.90
2022-08-17T00:30:59.815Z,99.90
2022-08-17T00:33:16.409Z,99.90
2022-08-17T00:35:28.766Z,99.90
2022-08-17T00:37:33.471Z,99.90
2022-08-17T00:39:37.944Z,99.90
2022-08-17T00:41:46.763Z,99.90
2022-08-17T00:43:59.709Z,99.90
2022-08-17T00:46:07.121Z,99.90
2022-08-17T00:48:29.266Z,99.90
2022-08-17T00:50:36.132Z,99.90
2022-08-17T00:52:44.994Z,99.90
2022-08-17T00:54:53.538Z,99.90
2022-08-17T00:57:09.568Z,99.90
2022-08-17T00:59:16.936Z,99.90
2022-08-17T01:01:25.597Z,99.90
2022-08-17T01:03:32.226Z,99.90
2022-08-17T01:05:42.237Z,99.90
2022-08-17T01:07:52.121Z,99.90
2022-08-17T01:09:56.575Z,99.90
2022-08-17T01:12:01.171Z,99.90
2022-08-17T01:14:10.356Z,99.90
2022-08-17T01:16:29.426Z,99.90
2022-08-17T01:18:34.652Z,99.90
2022-08-17T01:20:58.008Z,99.90
2022-08-17T01:23:03.156Z,99.90
2022-08-17T01:25:09.246Z,99.90
2022-08-17T01:27:16.152Z,99.90
2022-08-17T01:29:23.430Z,99.90
2022-08-17T01:31:30.867Z,99.90
2022-08-17T01:33:39.514Z,99.90
2022-08-17T01:35:44.029Z,99.90
2022-08-17T01:37:49.062Z,99.90
2022-08-17T01:39:59.733Z,99.90
2022-08-17T01:42:25.654Z,99.90
2022-08-17T01:44:30.179Z,99.90
2022-08-17T01:46:38.051Z,99.90
2022-08-17T01:48:44.026Z,99.90
2022-08-17T01:50:50.304Z,99.90
2022-08-17T01:53:02.229Z,99.90
2022-08-17T01:55:07.373Z,99.90
2022-08-17T01:57:11.822Z,99.90
2022-08-17T01:59:19.528Z,99.90
2022-08-17T02:01:25.651Z,99.90
2022-08-17T02:03:30.626Z,99.90
2022-08-17T02:05:39.506Z,99.90
2022-08-17T02:07:59.640Z,99.90
2022-08-17T02:10:18.961Z,99.90
2022-08-17T02:12:39.236Z,99.90
2022-08-17T02:14:45.038Z,99.90
2022-08-17T02:16:49.848Z,99.90
2022-08-17T02:18:59.017Z,99.90
2022-08-17T02:21:03.439Z,99.90
2022-08-17T02:23:09.985Z,99.90
2022-08-17T02:25:20.254Z,99.90
2022-08-17T02:27:28.461Z,99.90
2022-08-17T02:29:33.633Z,99.90
2022-08-17T02:31:42.327Z,99.90
2022-08-17T02:33:46.814Z,99.90
2022-08-17T02:36:06.653Z,99.90
2022-08-17T02:38:15.077Z,99.90
2022-08-17T02:40:36.023Z,99.90
2022-08-17T02:42:42.861Z,99.90
2022-08-17T02:44:47.522Z,99.90
2022-08-17T02:46:51.975Z,99.90
2022-08-17T02:48:57.649Z,99.90
2022-08-17T02:51:06.360Z,99.90
2022-08-17T02:53:10.983Z,99.90
2022-08-17T02:55:28.390Z,99.90
2022-08-17T02:57:36.755Z,99.90
2022-08-17T02:59:45.419Z,99.90
2022-08-17T03:01:53.118Z,99.90
2022-08-17T03:04:02.160Z,99.90
2022-08-17T03:06:09.198Z,99.90
2022-08-17T03:08:13.806Z,99.90
2022-08-17T03:10:22.529Z,99.90
2022-08-17T03:12:29.631Z,99.90
2022-08-17T03:14:37.035Z,99.90
2022-08-17T03:16:49.622Z,99.90
2022-08-17T03:18:55.246Z,99.90
2022-08-17T03:21:01.309Z,99.90
2022-08-17T03:23:10.155Z,99.90
2022-08-17T03:25:16.043Z,99.90
2022-08-17T03:27:23.998Z,99.90
2022-08-17T03:29:31.922Z,99.90
2022-08-17T03:31:37.068Z,99.90
2022-08-17T03:33:42.373Z,99.90
2022-08-17T03:35:51.289Z,99.90
2022-08-17T03:38:00.903Z,99.90
2022-08-17T03:40:07.164Z,99.90
2022-08-17T03:42:32.095Z,99.90
2022-08-17T03:44:37.372Z,99.90
2022-08-17T03:46:54.603Z,99.90
2022-08-17T03:49:15.345Z,99.90
2022-08-17T03:51:35.475Z,99.90
2022-08-17T03:54:10.135Z,99.90
2022-08-17T03:56:30.904Z,99.90
2022-08-17T03:58:35.381Z,99.90
2022-08-17T04:00:41.996Z,99.90
2022-08-17T04:02:50.703Z,99.90
2022-08-17T04:04:55.978Z,99.90
2022-08-17T04:07:02.277Z,99.90
2022-08-17T04:09:09.188Z,99.90
2022-08-17T04:11:13.639Z,99.90
2022-08-17T04:13:24.822Z,99.90
2022-08-17T04:15:34.203Z,99.90
2022-08-17T04:17:38.978Z,99.90
2022-08-17T04:19:43.779Z,99.90
2022-08-17T04:21:52.735Z,99.90
2022-08-17T04:23:59.050Z,99.90
2022-08-17T04:26:03.881Z,99.90
2022-08-17T04:28:16.025Z,99.90
2022-08-17T04:30:21.270Z,99.90
2022-08-17T04:33:02.927Z,99.90
2022-08-17T04:34:52.157Z,99.90
2022-08-17T04:36:57.263Z,99.90
2022-08-17T04:39:02.217Z,99.90
2022-08-17T04:41:19.982Z,99.90
2022-08-17T04:43:25.674Z,99.90
2022-08-17T04:45:32.222Z,99.90
2022-08-17T04:47:41.120Z,99.90
2022-08-17T04:49:46.870Z,99.90
2022-08-17T04:51:56.838Z,99.90
2022-08-17T04:54:12.166Z,99.90
2022-08-17T04:56:18.894Z,99.90
2022-08-17T04:58:23.538Z,99.90
2022-08-17T05:00:32.184Z,99.90
2022-08-17T05:02:49.870Z,99.90
2022-08-17T05:04:54.861Z,99.90
2022-08-17T05:07:03.193Z,99.90
2022-08-17T05:09:09.731Z,99.90
2022-08-17T05:11:14.353Z,99.90
2022-08-17T05:13:26.255Z,99.90
2022-08-17T05:15:33.092Z,99.90
2022-08-17T05:17:40.347Z,99.90
2022-08-17T05:19:52.108Z,99.90
2022-08-17T05:21:56.545Z,99.90
2022-08-17T05:24:01.749Z,99.90
2022-08-17T05:26:25.778Z,99.90
2022-08-17T05:28:31.287Z,99.90
2022-08-17T05:30:36.185Z,99.90
2022-08-17T05:32:56.540Z,99.90
2022-08-17T05:35:01.587Z,99.90
2022-08-17T05:37:06.297Z,99.90
2022-08-17T05:39:17.421Z,99.90
2022-08-17T05:41:22.262Z,99.90
2022-08-17T05:43:28.518Z,99.90
2022-08-17T05:45:54.533Z,99.90
2022-08-17T05:47:57.959Z,99.90
2022-08-17T05:50:03.072Z,99.90
2022-08-17T05:52:43.857Z,99.90
2022-08-17T05:55:20.129Z,99.90
2022-08-17T05:57:47.422Z,99.90
2022-08-17T06:00:20.544Z,99.90
2022-08-17T06:02:47.047Z,99.90
2022-08-17T06:05:25.178Z,99.90
2022-08-17T06:07:54.349Z,99.90
2022-08-17T06:10:07.742Z,99.60
2022-08-17T06:12:32.535Z,99.50
2022-08-17T06:15:10.598Z,99.10
2022-08-17T06:17:17.570Z,99.30
2022-08-17T06:19:41.578Z,99.80
2022-08-17T06:21:49.513Z,99.90
2022-08-17T06:24:00.991Z,99.90
2022-08-17T06:26:38.589Z,99.90
2022-08-17T06:29:05.787Z,99.90
2022-08-17T06:31:23.339Z,99.90
2022-08-17T06:33:38.210Z,99.90
2022-08-17T06:36:11.610Z,99.90
2022-08-17T06:38:42.402Z,99.90
2022-08-17T06:41:03.464Z,99.90
2022-08-17T06:43:43.984Z,99.80
2022-08-17T06:45:57.453Z,99.60
2022-08-17T06:48:25.856Z,99.90
2022-08-17T06:50:38.244Z,99.90
2022-08-17T06:53:08.033Z,99.90
2022-08-17T06:55:27.335Z,99.70
2022-08-17T06:57:34.253Z,99.10
2022-08-17T06:59:56.666Z,98.60
2022-08-17T07:02:05.350Z,98.50
2022-08-17T07:04:22.466Z,99.00
2022-08-17T07:06:37.925Z,98.90
2022-08-17T07:09:12.134Z,98.80
2022-08-17T07:11:32.591Z,98.90
2022-08-17T07:13:55.944Z,98.10
2022-08-17T07:16:08.974Z,98.50
2022-08-17T07:18:13.371Z,99.60
2022-08-17T07:20:26.272Z,99.80
2022-08-17T07:22:59.647Z,99.90
2022-08-17T07:25:07.987Z,99.90
2022-08-17T07:27:28.606Z,99.90
2022-08-17T07:29:34.376Z,99.90
2022-08-17T07:31:39.345Z,99.90
2022-08-17T07:34:01.402Z,99.90
2022-08-17T07:36:06.735Z,99.90
2022-08-17T07:38:25.664Z,99.90
2022-08-17T07:40:39.748Z,99.90
2022-08-17T07:42:46.812Z,99.90
2022-08-17T07:44:54.146Z,99.90
2022-08-17T07:47:13.302Z,99.90
2022-08-17T07:49:22.215Z,99.90
2022-08-17T07:51:38.898Z,99.90
2022-08-17T07:53:48.384Z,99.90
2022-08-17T07:55:53.463Z,99.90
2022-08-17T07:57:58.976Z,99.90
2022-08-17T08:00:17.878Z,99.90
2022-08-17T08:02:41.415Z,99.90
2022-08-17T08:05:10.636Z,99.90
2022-08-17T08:07:36.875Z,99.90
2022-08-17T08:10:06.184Z,99.90
2022-08-17T08:12:40.979Z,99.90
2022-08-17T08:14:45.850Z,99.90
2022-08-17T08:17:05.647Z,99.90
2022-08-17T08:19:21.142Z,99.90
2022-08-17T08:21:42.763Z,99.90
2022-08-17T08:24:01.670Z,99.90
2022-08-17T08:26:38.550Z,99.90
2022-08-17T08:29:15.046Z,99.90
2022-08-17T08:32:00.693Z,99.90
2022-08-17T08:34:49.717Z,99.90
2022-08-17T08:37:15.892Z,99.90
2022-08-17T08:39:32.210Z,99.90
2022-08-17T08:41:59.948Z,99.90
2022-08-17T08:45:01.340Z,99.90
2022-08-17T08:47:42.614Z,99.90
2022-08-17T08:50:04.711Z,99.90
2022-08-17T08:52:17.174Z,99.90
2022-08-17T08:54:40.170Z,99.90
2022-08-17T08:57:30.773Z,99.60
2022-08-17T09:00:01.121Z,99.60
2022-08-17T09:02:25.054Z,99.40
2022-08-17T09:05:10.329Z,98.90
2022-08-17T09:07:32.257Z,98.90
2022-08-17T09:09:59.198Z,99.20
2022-08-17T09:12:27.244Z,99.10
2022-08-17T09:14:59.390Z,99.30
2022-08-17T09:17:19.699Z,99.00
2022-08-17T09:19:42.832Z,98.80
2022-08-17T09:22:15.236Z,99.20
2022-08-17T09:24:51.073Z,98.60
2022-08-17T09:27:21.110Z,99.70
2022-08-17T09:29:26.603Z,99.30
2022-08-17T09:31:48.194Z,99.30
2022-08-17T09:34:02.062Z,98.90
2022-08-17T09:36:11.202Z,98.90
2022-08-17T09:38:40.600Z,98.70
2022-08-17T09:40:57.982Z,98.60
2022-08-17T09:43:31.633Z,98.60
2022-08-17T09:45:39.219Z,98.60
2022-08-17T09:47:57.042Z,98.40
2022-08-17T09:50:12.602Z,98.70
2022-08-17T09:52:28.658Z,98.60
2022-08-17T09:54:39.706Z,98.60
2022-08-17T09:57:32.142Z,98.80
2022-08-17T10:00:21.217Z,98.60
2022-08-17T10:02:58.257Z,98.40
2022-08-17T10:05:13.079Z,98.50
2022-08-17T10:07:31.563Z,98.30
2022-08-17T10:10:01.201Z,98.50
2022-08-17T10:12:30.237Z,99.00
2022-08-17T10:15:08.128Z,98.60
2022-08-17T10:17:51.598Z,99.10
2022-08-17T10:20:13.206Z,99.00
2022-08-17T10:22:43.368Z,98.80
2022-08-17T10:25:23.955Z,98.80
2022-08-17T10:27:36.936Z,98.80
2022-08-17T10:29:52.076Z,98.90
2022-08-17T10:32:02.535Z,98.80
2022-08-17T10:34:28.700Z,98.90
2022-08-17T10:36:56.081Z,99.00
2022-08-17T10:39:10.460Z,99.10
2022-08-17T10:41:40.759Z,99.20
2022-08-17T10:44:38.860Z,99.30
2022-08-17T10:47:15.628Z,99.40
2022-08-17T10:49:30.518Z,99.90
2022-08-17T10:51:40.747Z,99.90
2022-08-17T10:53:55.098Z,99.90
2022-08-17T10:56:19.004Z,99.90
2022-08-17T10:58:27.178Z,99.90
2022-08-17T11:01:02.278Z,99.90
2022-08-17T11:03:18.263Z,99.90
2022-08-17T11:05:53.294Z,99.90
2022-08-17T11:08:32.218Z,99.90
2022-08-17T11:11:16.380Z,99.90
2022-08-17T11:13:48.137Z,99.90
2022-08-17T11:16:12.488Z,99.90
2022-08-17T11:18:30.622Z,99.90
2022-08-17T11:21:01.361Z,99.90
2022-08-17T11:23:38.477Z,99.90
2022-08-17T11:25:46.052Z,99.90
2022-08-17T11:27:56.694Z,99.90
2022-08-17T11:30:12.866Z,99.90
2022-08-17T11:32:52.969Z,99.90
2022-08-17T11:35:22.898Z,99.90
2022-08-17T11:38:00.132Z,99.90
2022-08-17T11:40:37.981Z,99.90
2022-08-17T11:43:01.384Z,99.90
2022-08-17T11:45:32.234Z,99.90
2022-08-17T11:48:26.724Z,99.90
2022-08-17T11:50:56.883Z,99.90
2022-08-17T11:53:03.235Z,99.90
2022-08-17T11:55:34.099Z,99.90
2022-08-17T11:57:55.192Z,99.90
2022-08-17T12:00:11.741Z,99.90
2022-08-17T12:02:37.261Z,99.90
2022-08-17T12:04:42.422Z,99.90
2022-08-17T12:07:02.946Z,99.90
2022-08-17T12:09:15.174Z,99.90
2022-08-17T12:11:58.616Z,99.90
2022-08-17T12:14:15.031Z,99.90
2022-08-17T12:16:24.235Z,99.90
2022-08-17T12:18:33.715Z,99.90
2022-08-17T12:20:43.495Z,99.90
2022-08-17T12:23:05.416Z,99.90
2022-08-17T12:25:25.729Z,99.90
2022-08-17T12:27:47.752Z,99.90
2022-08-17T12:30:01.892Z,99.90
2022-08-17T12:32:07.854Z,99.90
2022-08-17T12:34:37.870Z,99.90
2022-08-17T12:36:43.535Z,99.90
2022-08-17T12:39:14.228Z,99.90
2022-08-17T12:41:44.714Z,99.90
2022-08-17T12:43:59.706Z,99.90
2022-08-17T12:46:12.937Z,99.90
2022-08-17T12:48:27.501Z,99.90
2022-08-17T12:50:33.078Z,99.90
2022-08-17T12:52:40.186Z,99.90
2022-08-17T12:55:00.706Z,99.90
2022-08-17T12:57:18.233Z,99.90
2022-08-17T12:59:30.412Z,99.90
2022-08-17T13:01:42.050Z,99.90
2022-08-17T13:03:55.090Z,99.90
2022-08-17T13:06:10.588Z,99.90
2022-08-17T13:08:18.239Z,99.90
2022-08-17T13:10:34.762Z,99.90
2022-08-17T13:12:39.504Z,99.90
2022-08-17T13:14:48.941Z,99.90
2022-08-17T13:17:01.563Z,99.90
2022-08-17T13:19:09.351Z,99.90
2022-08-17T13:21:35.053Z,99.90
2022-08-17T13:23:39.537Z,99.90
2022-08-17T13:25:56.970Z,99.90
2022-08-17T13:28:03.353Z,99.90
2022-08-17T13:30:12.723Z,99.90
2022-08-17T13:32:24.121Z,99.90
2022-08-17T13:34:59.633Z,99.90
2022-08-17T13:37:40.675Z,99.90
2022-08-17T13:39:50.903Z,99.90
2022-08-17T13:41:57.170Z,99.90
2022-08-17T13:44:01.563Z,99.90
2022-08-17T13:46:13.409Z,99.90
2022-08-17T13:48:28.093Z,99.90
2022-08-17T13:50:33.576Z,99.90
2022-08-17T13:52:47.770Z,99.90
2022-08-17T13:54:56.240Z,99.90
2022-08-17T13:57:02.429Z,99.90
2022-08-17T13:59:16.882Z,99.90
2022-08-17T14:01:53.148Z,99.90
2022-08-17T14:03:59.565Z,99.90
2022-08-17T14:06:08.147Z,99.90
2022-08-17T14:08:13.438Z,99.90
2022-08-17T14:10:18.862Z,99.90
2022-08-17T14:12:28.351Z,99.90
2022-08-17T14:14:32.820Z,99.90
2022-08-17T14:16:42.817Z,99.90
2022-08-17T14:18:56.564Z,99.90
2022-08-17T14:21:01.960Z,99.90
2022-08-17T14:23:07.239Z,99.90
2022-08-17T14:25:15.906Z,99.90
2022-08-17T14:27:21.468Z,99.90
2022-08-17T14:29:28.958Z,99.90
2022-08-17T14:31:37.697Z,99.90
2022-08-17T14:33:42.264Z,99.90
2022-08-17T14:35:48.341Z,99.90
2022-08-17T14:37:55.907Z,99.90
2022-08-17T14:40:01.919Z,99.90
2022-08-17T14:42:07.173Z,99.90
2022-08-17T14:44:16.351Z,99.90
2022-08-17T14:46:21.339Z,99.90
2022-08-17T14:48:25.766Z,99.90
2022-08-17T14:50:35.512Z,99.90
2022-08-17T14:52:42.425Z,99.90
2022-08-17T14:54:47.449Z,99.90
2022-08-17T14:56:59.193Z,99.90
2022-08-17T14:59:19.112Z,99.90
2022-08-17T15:01:25.637Z,99.90
2022-08-17T15:03:31.650Z,99.90
2022-08-17T15:05:37.661Z,99.90
2022-08-17T15:07:42.326Z,99.90
2022-08-17T15:09:48.858Z,99.90
2022-08-17T15:12:28.645Z,99.90
2022-08-17T15:14:37.478Z,99.90
2022-08-17T15:16:44.969Z,99.90
2022-08-17T15:18:52.084Z,99.90
2022-08-17T15:20:56.651Z,99.90
2022-08-17T15:23:05.357Z,99.90
2022-08-17T15:25:11.563Z,99.90
2022-08-17T15:27:16.048Z,99.90
2022-08-17T15:29:40.599Z,99.90
2022-08-17T15:31:45.025Z,99.90
2022-08-17T15:33:49.770Z,99.90
2022-08-17T15:35:57.835Z,99.90
2022-08-17T15:38:11.194Z,99.90
2022-08-17T15:40:16.553Z,99.90
2022-08-17T15:42:25.413Z,99.90
2022-08-17T15:44:34.778Z,99.90
2022-08-17T15:46:39.682Z,99.90
2022-08-17T15:48:49.221Z,99.90
2022-08-17T15:50:53.625Z,99.90
2022-08-17T15:52:59.300Z,99.90
2022-08-17T15:55:11.601Z,99.90
2022-08-17T15:57:16.225Z,99.90
2022-08-17T15:59:20.628Z,99.90
2022-08-17T16:02:27.742Z,99.90
2022-08-17T16:04:03.834Z,99.90
2022-08-17T16:06:10.108Z,99.90
2022-08-17T16:08:21.234Z,99.90
2022-08-17T16:10:35.151Z,99.90
2022-08-17T16:12:40.496Z,99.90
2022-08-17T16:14:47.910Z,99.90
2022-08-17T16:16:52.332Z,99.90
2022-08-17T16:18:59.676Z,99.90
2022-08-17T16:21:22.058Z,99.90
2022-08-17T16:23:26.792Z,99.90
2022-08-17T16:25:51.984Z,99.90
2022-08-17T16:28:02.097Z,99.90
2022-08-17T16:30:07.287Z,99.90
2022-08-17T16:32:15.565Z,99.90
2022-08-17T16:34:24.167Z,99.90
2022-08-17T16:36:30.488Z,99.90
2022-08-17T16:38:36.761Z,99.90
2022-08-17T16:40:45.459Z,99.90
2022-08-17T16:42:50.618Z,99.90
2022-08-17T16:44:56.043Z,99.90
2022-08-17T16:47:04.535Z,99.90
2022-08-17T16:49:10.296Z,99.90
2022-08-17T16:51:17.818Z,99.90
2022-08-17T16:53:26.675Z,99.90
2022-08-17T16:55:30.925Z,99.90
2022-08-17T16:57:36.088Z,99.90
2022-08-17T16:59:44.871Z,99.90
2022-08-17T17:01:52.589Z,99.90
2022-08-17T17:03:58.381Z,99.90
2022-08-17T17:06:44.097Z,99.90
2022-08-17T17:09:09.280Z,99.90
2022-08-17T17:11:27.612Z,99.90
2022-08-17T17:13:41.311Z,99.90
2022-08-17T17:16:08.763Z,99.90
2022-08-17T17:18:13.765Z,99.90
2022-08-17T17:20:31.873Z,99.90
2022-08-17T17:23:00.687Z,99.90
2022-08-17T17:25:32.516Z,99.90
2022-08-17T17:28:08.468Z,99.90
2022-08-17T17:30:22.446Z,99.90
2022-08-17T17:32:40.456Z,99.90
2022-08-17T17:34:51.087Z,99.90
2022-08-17T17:36:59.186Z,99.90
2022-08-17T17:39:07.092Z,99.90
2022-08-17T17:41:22.472Z,99.90
2022-08-17T17:43:39.539Z,99.90
2022-08-17T17:46:27.837Z,99.90
2022-08-17T17:48:37.679Z,99.90
2022-08-17T17:50:56.295Z,99.90
2022-08-17T17:53:12.319Z,99.90
2022-08-17T17:55:36.090Z,99.90
2022-08-17T17:58:12.547Z,99.90
2022-08-17T18:00:24.629Z,99.90
2022-08-17T18:03:04.691Z,99.90
2022-08-17T18:05:26.605Z,99.90
2022-08-17T18:07:43.137Z,99.90
2022-08-17T18:10:30.265Z,99.90
2022-08-17T18:13:17.215Z,99.90
2022-08-17T18:15:57.335Z,99.90
2022-08-17T18:18:25.834Z,99.90
2022-08-17T18:20:43.475Z,99.90
2022-08-17T18:22:59.998Z,99.90
2022-08-17T18:25:07.420Z,99.90
2022-08-17T18:27:40.177Z,99.90
2022-08-17T18:29:48.106Z,99.90
2022-08-17T18:32:25.798Z,99.90
2022-08-17T18:34:48.606Z,99.90
2022-08-17T18:36:56.954Z,99.90
2022-08-17T18:39:33.482Z,99.90
2022-08-17T18:41:43.274Z,99.90
2022-08-17T18:44:08.099Z,99.90
2022-08-17T18:46:37.833Z,99.90
2022-08-17T18:48:55.241Z,99.90
2022-08-17T18:51:40.404Z,99.90
2022-08-17T18:53:52.038Z,99.90
2022-08-17T18:56:22.860Z,99.90
2022-08-17T18:58:37.689Z,99.90
2022-08-17T19:00:48.445Z,99.90
2022-08-17T19:02:56.592Z,99.90
2022-08-17T19:05:42.531Z,99.90
2022-08-17T19:07:55.854Z,99.90
2022-08-17T19:10:32.266Z,99.90
2022-08-17T19:13:00.159Z,99.90
2022-08-17T19:15:06.609Z,99.90
2022-08-17T19:17:36.619Z,99.90
2022-08-17T19:19:59.660Z,99.90
2022-08-17T19:22:31.565Z,99.90
2022-08-17T19:24:36.937Z,99.90
2022-08-17T19:26:59.445Z,99.90
2022-08-17T19:29:12.299Z,99.90
2022-08-17T19:31:25.888Z,99.90
2022-08-17T19:33:34.623Z,99.90
2022-08-17T19:35:51.043Z,99.90
2022-08-17T19:38:16.447Z,99.90
2022-08-17T19:40:57.740Z,99.90
2022-08-17T19:43:26.921Z,99.90
2022-08-17T19:46:11.088Z,99.90
2022-08-17T19:48:38.805Z,99.90
2022-08-17T19:50:59.406Z,99.90
2022-08-17T19:54:04.261Z,99.90
2022-08-17T19:56:28.064Z,99.90
2022-08-17T19:58:58.263Z,99.90
2022-08-17T20:01:02.763Z,99.90
2022-08-17T20:03:17.397Z,99.90
2022-08-17T20:05:26.191Z,99.90
2022-08-17T20:08:07.177Z,99.90
2022-08-17T20:10:29.430Z,99.90
2022-08-17T20:12:38.444Z,99.90
2022-08-17T20:14:58.428Z,99.90
2022-08-17T20:17:17.031Z,99.90
2022-08-17T20:19:47.389Z,99.90
2022-08-17T20:22:12.645Z,99.90
2022-08-17T20:24:51.256Z,99.90
2022-08-17T20:27:02.468Z,99.90
2022-08-17T20:29:37.497Z,99.90
2022-08-17T20:32:10.577Z,99.90
2022-08-17T20:34:36.940Z,99.90
2022-08-17T20:36:55.123Z,99.90
2022-08-17T20:39:02.860Z,99.90
2022-08-17T20:41:12.865Z,99.90
2022-08-17T20:43:47.177Z,99.90
2022-08-17T20:46:13.358Z,99.90
2022-08-17T20:48:36.886Z,99.90
2022-08-17T20:50:45.537Z,99.90
2022-08-17T20:52:59.946Z,99.90
2022-08-17T20:55:05.478Z,99.90
2022-08-17T20:57:14.116Z,99.90
2022-08-17T20:59:56.307Z,99.90
2022-08-17T21:02:19.661Z,99.90
2022-08-17T21:05:01.961Z,99.90
2022-08-17T21:07:43.933Z,99.90
2022-08-17T21:09:50.618Z,99.90
2022-08-17T21:12:04.619Z,99.90
2022-08-17T21:14:26.853Z,99.90
2022-08-17T21:16:59.826Z,99.90
2022-08-17T21:19:44.378Z,99.90
2022-08-17T21:22:26.658Z,99.90
2022-08-17T21:24:57.669Z,99.90
2022-08-17T21:27:24.233Z,99.90
2022-08-17T21:29:32.913Z,99.90
2022-08-17T21:31:42.391Z,99.90
2022-08-17T21:34:11.824Z,99.90
2022-08-17T21:36:24.664Z,99.90
2022-08-17T21:38:39.648Z,99.90
2022-08-17T21:40:48.619Z,99.90
2022-08-17T21:43:00.518Z,99.90
2022-08-17T21:45:30.651Z,99.90
2022-08-17T21:47:41.994Z,99.90
2022-08-17T21:49:46.343Z,99.90
2022-08-17T21:51:54.602Z,99.90
2022-08-17T21:54:01.622Z,99.90
2022-08-17T21:56:07.522Z,99.90
2022-08-17T21:58:36.179Z,99.90
2022-08-17T22:00:42.570Z,99.90
2022-08-17T22:02:48.020Z,99.90
2022-08-17T22:05:16.042Z,99.90
2022-08-17T22:07:34.958Z,99.90
2022-08-17T22:09:50.199Z,99.90
2022-08-17T22:12:29.150Z,99.90
2022-08-17T22:14:59.358Z,99.90
2022-08-17T22:17:36.243Z,99.90
2022-08-17T22:19:42.829Z,99.90
2022-08-17T22:21:47.240Z,99.90
2022-08-17T22:24:09.187Z,99.90
2022-08-17T22:26:16.650Z,99.90
2022-08-17T22:28:50.147Z,99.90
2022-08-17T22:31:04.091Z,99.90
2022-08-17T22:33:33.174Z,99.90
2022-08-17T22:35:42.910Z,99.90
2022-08-17T22:37:49.529Z,99.90
2022-08-17T22:40:00.637Z,99.90
2022-08-17T22:42:05.623Z,99.90
2022-08-17T22:44:26.404Z,99.90
2022-08-17T22:46:33.365Z,99.90
2022-08-17T22:48:37.801Z,99.90
2022-08-17T22:50:42.400Z,99.90
2022-08-17T22:53:10.510Z,99.90
2022-08-17T22:55:29.368Z,99.90
2022-08-17T22:57:48.339Z,99.90
2022-08-17T22:59:55.752Z,99.90
2022-08-17T23:02:32.100Z,99.90
2022-08-17T23:04:38.759Z,99.90
2022-08-17T23:06:43.623Z,99.90
2022-08-17T23:08:55.698Z,99.90
2022-08-17T23:11:02.998Z,99.90
2022-08-17T23:13:11.527Z,99.90
2022-08-17T23:15:18.463Z,99.90
2022-08-17T23:17:24.947Z,99.90
2022-08-17T23:19:32.065Z,99.90
2022-08-17T23:21:37.293Z,99.90
2022-08-17T23:23:44.254Z,99.90
2022-08-17T23:25:50.731Z,99.90
2022-08-17T23:27:58.384Z,99.90
2022-08-17T23:30:03.087Z,99.90
2022-08-17T23:32:10.935Z,99.90
2022-08-17T23:34:16.178Z,99.90
2022-08-17T23:36:20.881Z,99.90
2022-08-17T23:38:28.627Z,99.90
2022-08-17T23:40:33.089Z,99.90
2022-08-17T23:42:43.780Z,99.90
2022-08-17T23:44:53.603Z,99.90
2022-08-17T23:46:58.559Z,99.90
2022-08-17T23:49:04.917Z,99.90
2022-08-17T23:51:16.783Z,99.90
2022-08-17T23:53:21.410Z,99.90
2022-08-17T23:55:26.170Z,99.90
2022-08-17T23:57:33.609Z,99.90
2022-08-17T23:59:40.963Z,99.90
